sensor_id;sensor_type;location;lat;lon;timestamp;P1;durP1;ratioP1;P2;durP2;ratioP2
60292;SDS011;52402;52.670;6.750;2023-09-08T00:02:18;0.20;;;0.20;;
60292;SDS011;52402;52.670;6.750;2023-09-08T00:04:44;0.20;;;0.20;;
60292;SDS011;52402;52.670;6.750;2023-09-08T00:07:09;0.20;;;0.20;;
60292;SDS011;52402;52.670;6.750;2023-09-08T00:09:35;0.20;;;0.20;;
60292;SDS011;52402;52.670;6.750;2023-09-08T00:12:02;0.20;;;0.20;;
60292;SDS011;52402;52.670;6.750;2023-09-08T00:14:27;0.20;;;0.20;;
60292;SDS011;52402;52.670;6.750;2023-09-08T00:16:53;0.20;;;0.20;;
60292;SDS011;52402;52.670;6.750;2023-09-08T00:19:22;0.20;;;0.20;;
60292;SDS011;52402;52.670;6.750;2023-09-08T00:21:48;0.20;;;0.20;;
60292;SDS011;52402;52.670;6.750;2023-09-08T00:24:14;0.20;;;0.20;;
60292;SDS011;52402;52.670;6.750;2023-09-08T00:26:40;0.20;;;0.20;;
60292;SDS011;52402;52.670;6.750;2023-09-08T00:29:06;0.20;;;0.20;;
60292;SDS011;52402;52.670;6.750;2023-09-08T00:31:32;0.20;;;0.20;;
60292;SDS011;52402;52.670;6.750;2023-09-08T00:33:58;0.20;;;0.20;;
60292;SDS011;52402;52.670;6.750;2023-09-08T00:36:24;0.20;;;0.20;;
60292;SDS011;52402;52.670;6.750;2023-09-08T00:38:51;0.20;;;0.20;;
60292;SDS011;52402;52.670;6.750;2023-09-08T00:41:17;0.20;;;0.20;;
60292;SDS011;52402;52.670;6.750;2023-09-08T00:43:43;0.20;;;0.20;;
60292;SDS011;52402;52.670;6.750;2023-09-08T00:46:09;0.20;;;0.20;;
60292;SDS011;52402;52.670;6.750;2023-09-08T00:48:36;0.20;;;0.20;;
60292;SDS011;52402;52.670;6.750;2023-09-08T00:51:02;0.20;;;0.20;;
60292;SDS011;52402;52.670;6.750;2023-09-08T00:53:31;0.30;;;0.30;;
60292;SDS011;52402;52.670;6.750;2023-09-08T00:55:58;0.20;;;0.20;;
60292;SDS011;52402;52.670;6.750;2023-09-08T00:58:25;0.20;;;0.20;;
60292;SDS011;52402;52.670;6.750;2023-09-08T01:00:50;0.20;;;0.20;;
60292;SDS011;52402;52.670;6.750;2023-09-08T01:03:16;0.25;;;0.25;;
60292;SDS011;52402;52.670;6.750;2023-09-08T01:05:42;0.30;;;0.30;;
60292;SDS011;52402;52.670;6.750;2023-09-08T01:08:08;0.25;;;0.25;;
60292;SDS011;52402;52.670;6.750;2023-09-08T01:10:34;0.20;;;0.20;;
60292;SDS011;52402;52.670;6.750;2023-09-08T01:13:02;0.30;;;0.30;;
60292;SDS011;52402;52.670;6.750;2023-09-08T01:15:28;0.30;;;0.30;;
60292;SDS011;52402;52.670;6.750;2023-09-08T01:17:54;0.25;;;0.25;;
60292;SDS011;52402;52.670;6.750;2023-09-08T01:20:24;0.17;;;0.17;;
60292;SDS011;52402;52.670;6.750;2023-09-08T01:25:52;0.22;;;0.22;;
60292;SDS011;52402;52.670;6.750;2023-09-08T01:28:23;0.20;;;0.20;;
60292;SDS011;52402;52.670;6.750;2023-09-08T01:30:50;0.30;;;0.30;;
60292;SDS011;52402;52.670;6.750;2023-09-08T01:33:16;0.20;;;0.20;;
60292;SDS011;52402;52.670;6.750;2023-09-08T01:35:42;0.20;;;0.20;;
60292;SDS011;52402;52.670;6.750;2023-09-08T01:38:08;0.22;;;0.22;;
60292;SDS011;52402;52.670;6.750;2023-09-08T01:40:34;0.20;;;0.20;;
60292;SDS011;52402;52.670;6.750;2023-09-08T01:43:00;0.20;;;0.20;;
60292;SDS011;52402;52.670;6.750;2023-09-08T01:45:26;0.30;;;0.30;;
60292;SDS011;52402;52.670;6.750;2023-09-08T01:47:51;0.20;;;0.20;;
60292;SDS011;52402;52.670;6.750;2023-09-08T01:50:17;0.20;;;0.20;;
60292;SDS011;52402;52.670;6.750;2023-09-08T01:52:47;0.30;;;0.30;;
60292;SDS011;52402;52.670;6.750;2023-09-08T01:55:13;0.30;;;0.30;;
60292;SDS011;52402;52.670;6.750;2023-09-08T01:57:41;0.20;;;0.20;;
60292;SDS011;52402;52.670;6.750;2023-09-08T02:00:07;0.20;;;0.20;;
60292;SDS011;52402;52.670;6.750;2023-09-08T02:02:33;0.20;;;0.20;;
60292;SDS011;52402;52.670;6.750;2023-09-08T02:04:58;0.20;;;0.20;;
60292;SDS011;52402;52.670;6.750;2023-09-08T02:07:24;0.20;;;0.20;;
60292;SDS011;52402;52.670;6.750;2023-09-08T02:09:49;0.20;;;0.20;;
60292;SDS011;52402;52.670;6.750;2023-09-08T02:12:15;0.30;;;0.30;;
60292;SDS011;52402;52.670;6.750;2023-09-08T02:14:41;0.20;;;0.20;;
60292;SDS011;52402;52.670;6.750;2023-09-08T02:17:06;0.20;;;0.20;;
60292;SDS011;52402;52.670;6.750;2023-09-08T02:19:32;0.20;;;0.20;;
60292;SDS011;52402;52.670;6.750;2023-09-08T02:21:58;0.30;;;0.30;;
60292;SDS011;52402;52.670;6.750;2023-09-08T02:24:23;0.20;;;0.20;;
60292;SDS011;52402;52.670;6.750;2023-09-08T02:26:49;0.30;;;0.30;;
60292;SDS011;52402;52.670;6.750;2023-09-08T02:29:15;0.20;;;0.20;;
60292;SDS011;52402;52.670;6.750;2023-09-08T02:31:40;0.20;;;0.20;;
60292;SDS011;52402;52.670;6.750;2023-09-08T02:34:06;0.22;;;0.22;;
60292;SDS011;52402;52.670;6.750;2023-09-08T02:36:31;0.30;;;0.30;;
60292;SDS011;52402;52.670;6.750;2023-09-08T02:38:57;0.20;;;0.20;;
60292;SDS011;52402;52.670;6.750;2023-09-08T02:41:23;0.20;;;0.20;;
60292;SDS011;52402;52.670;6.750;2023-09-08T02:43:49;0.20;;;0.20;;
60292;SDS011;52402;52.670;6.750;2023-09-08T02:46:15;0.20;;;0.20;;
60292;SDS011;52402;52.670;6.750;2023-09-08T02:48:40;0.20;;;0.20;;
60292;SDS011;52402;52.670;6.750;2023-09-08T02:51:06;0.22;;;0.22;;
60292;SDS011;52402;52.670;6.750;2023-09-08T02:53:32;0.20;;;0.20;;
60292;SDS011;52402;52.670;6.750;2023-09-08T02:55:58;0.25;;;0.25;;
60292;SDS011;52402;52.670;6.750;2023-09-08T02:58:24;0.20;;;0.20;;
60292;SDS011;52402;52.670;6.750;2023-09-08T03:00:50;0.20;;;0.20;;
60292;SDS011;52402;52.670;6.750;2023-09-08T03:03:20;0.28;;;0.28;;
60292;SDS011;52402;52.670;6.750;2023-09-08T03:05:46;0.20;;;0.20;;
60292;SDS011;52402;52.670;6.750;2023-09-08T03:08:11;0.20;;;0.20;;
60292;SDS011;52402;52.670;6.750;2023-09-08T03:10:37;0.20;;;0.20;;
60292;SDS011;52402;52.670;6.750;2023-09-08T03:13:03;0.20;;;0.20;;
60292;SDS011;52402;52.670;6.750;2023-09-08T03:15:29;0.20;;;0.20;;
60292;SDS011;52402;52.670;6.750;2023-09-08T03:17:55;0.20;;;0.20;;
60292;SDS011;52402;52.670;6.750;2023-09-08T03:20:22;0.20;;;0.20;;
60292;SDS011;52402;52.670;6.750;2023-09-08T03:22:47;0.20;;;0.20;;
60292;SDS011;52402;52.670;6.750;2023-09-08T03:25:13;0.20;;;0.20;;
60292;SDS011;52402;52.670;6.750;2023-09-08T03:27:40;0.20;;;0.20;;
60292;SDS011;52402;52.670;6.750;2023-09-08T03:30:06;0.20;;;0.20;;
60292;SDS011;52402;52.670;6.750;2023-09-08T03:32:32;0.20;;;0.20;;
60292;SDS011;52402;52.670;6.750;2023-09-08T03:34:58;0.20;;;0.20;;
60292;SDS011;52402;52.670;6.750;2023-09-08T03:37:23;0.20;;;0.20;;
60292;SDS011;52402;52.670;6.750;2023-09-08T03:39:51;0.20;;;0.20;;
60292;SDS011;52402;52.670;6.750;2023-09-08T03:42:17;0.30;;;0.30;;
60292;SDS011;52402;52.670;6.750;2023-09-08T03:44:42;0.20;;;0.20;;
60292;SDS011;52402;52.670;6.750;2023-09-08T03:47:08;0.20;;;0.20;;
60292;SDS011;52402;52.670;6.750;2023-09-08T03:49:34;0.20;;;0.20;;
60292;SDS011;52402;52.670;6.750;2023-09-08T03:51:59;0.20;;;0.20;;
60292;SDS011;52402;52.670;6.750;2023-09-08T03:54:25;0.20;;;0.20;;
60292;SDS011;52402;52.670;6.750;2023-09-08T03:56:50;0.30;;;0.30;;
60292;SDS011;52402;52.670;6.750;2023-09-08T03:59:16;0.20;;;0.20;;
60292;SDS011;52402;52.670;6.750;2023-09-08T04:01:42;0.20;;;0.20;;
60292;SDS011;52402;52.670;6.750;2023-09-08T04:04:07;0.20;;;0.20;;
60292;SDS011;52402;52.670;6.750;2023-09-08T04:06:33;0.20;;;0.20;;
60292;SDS011;52402;52.670;6.750;2023-09-08T04:08:59;0.20;;;0.20;;
60292;SDS011;52402;52.670;6.750;2023-09-08T04:11:25;0.20;;;0.20;;
60292;SDS011;52402;52.670;6.750;2023-09-08T04:13:51;0.20;;;0.20;;
60292;SDS011;52402;52.670;6.750;2023-09-08T04:16:17;0.20;;;0.20;;
60292;SDS011;52402;52.670;6.750;2023-09-08T04:18:42;0.20;;;0.20;;
60292;SDS011;52402;52.670;6.750;2023-09-08T04:21:08;0.20;;;0.20;;
60292;SDS011;52402;52.670;6.750;2023-09-08T04:23:34;0.28;;;0.28;;
60292;SDS011;52402;52.670;6.750;2023-09-08T04:25:59;0.28;;;0.28;;
60292;SDS011;52402;52.670;6.750;2023-09-08T04:28:25;0.30;;;0.30;;
60292;SDS011;52402;52.670;6.750;2023-09-08T04:30:51;0.20;;;0.20;;
60292;SDS011;52402;52.670;6.750;2023-09-08T04:33:16;0.20;;;0.20;;
60292;SDS011;52402;52.670;6.750;2023-09-08T04:35:43;0.28;;;0.28;;
60292;SDS011;52402;52.670;6.750;2023-09-08T04:38:08;0.22;;;0.22;;
60292;SDS011;52402;52.670;6.750;2023-09-08T04:40:34;0.20;;;0.20;;
60292;SDS011;52402;52.670;6.750;2023-09-08T04:43:00;0.20;;;0.20;;
60292;SDS011;52402;52.670;6.750;2023-09-08T04:45:25;0.20;;;0.20;;
60292;SDS011;52402;52.670;6.750;2023-09-08T04:47:51;0.20;;;0.20;;
60292;SDS011;52402;52.670;6.750;2023-09-08T04:50:17;0.20;;;0.20;;
60292;SDS011;52402;52.670;6.750;2023-09-08T04:52:42;0.20;;;0.20;;
60292;SDS011;52402;52.670;6.750;2023-09-08T04:55:09;0.28;;;0.28;;
60292;SDS011;52402;52.670;6.750;2023-09-08T04:57:35;0.22;;;0.22;;
60292;SDS011;52402;52.670;6.750;2023-09-08T05:00:01;0.20;;;0.20;;
60292;SDS011;52402;52.670;6.750;2023-09-08T05:02:27;0.20;;;0.20;;
60292;SDS011;52402;52.670;6.750;2023-09-08T05:04:52;0.13;;;0.13;;
60292;SDS011;52402;52.670;6.750;2023-09-08T05:07:18;0.20;;;0.20;;
60292;SDS011;52402;52.670;6.750;2023-09-08T05:09:44;0.20;;;0.20;;
60292;SDS011;52402;52.670;6.750;2023-09-08T05:12:09;0.20;;;0.20;;
60292;SDS011;52402;52.670;6.750;2023-09-08T05:14:35;0.30;;;0.30;;
60292;SDS011;52402;52.670;6.750;2023-09-08T05:17:01;0.20;;;0.20;;
60292;SDS011;52402;52.670;6.750;2023-09-08T05:19:26;0.20;;;0.20;;
60292;SDS011;52402;52.670;6.750;2023-09-08T05:21:53;0.20;;;0.20;;
60292;SDS011;52402;52.670;6.750;2023-09-08T05:24:20;0.20;;;0.20;;
60292;SDS011;52402;52.670;6.750;2023-09-08T05:26:46;0.20;;;0.20;;
60292;SDS011;52402;52.670;6.750;2023-09-08T05:29:12;0.20;;;0.20;;
60292;SDS011;52402;52.670;6.750;2023-09-08T05:31:38;0.20;;;0.20;;
60292;SDS011;52402;52.670;6.750;2023-09-08T05:34:04;0.20;;;0.20;;
60292;SDS011;52402;52.670;6.750;2023-09-08T05:36:29;0.20;;;0.20;;
60292;SDS011;52402;52.670;6.750;2023-09-08T05:38:57;0.30;;;0.30;;
60292;SDS011;52402;52.670;6.750;2023-09-08T05:41:23;0.22;;;0.22;;
60292;SDS011;52402;52.670;6.750;2023-09-08T05:43:48;0.20;;;0.20;;
60292;SDS011;52402;52.670;6.750;2023-09-08T05:46:14;0.30;;;0.30;;
60292;SDS011;52402;52.670;6.750;2023-09-08T05:48:40;0.20;;;0.20;;
60292;SDS011;52402;52.670;6.750;2023-09-08T05:51:05;0.20;;;0.20;;
60292;SDS011;52402;52.670;6.750;2023-09-08T05:53:32;0.20;;;0.20;;
60292;SDS011;52402;52.670;6.750;2023-09-08T05:55:58;0.20;;;0.20;;
60292;SDS011;52402;52.670;6.750;2023-09-08T05:58:24;0.20;;;0.20;;
60292;SDS011;52402;52.670;6.750;2023-09-08T06:00:52;0.17;;;0.17;;
60292;SDS011;52402;52.670;6.750;2023-09-08T06:03:18;0.20;;;0.20;;
60292;SDS011;52402;52.670;6.750;2023-09-08T06:05:44;0.20;;;0.20;;
60292;SDS011;52402;52.670;6.750;2023-09-08T06:08:10;0.20;;;0.20;;
60292;SDS011;52402;52.670;6.750;2023-09-08T06:10:35;0.20;;;0.20;;
60292;SDS011;52402;52.670;6.750;2023-09-08T06:13:02;0.20;;;0.20;;
60292;SDS011;52402;52.670;6.750;2023-09-08T06:15:28;0.20;;;0.20;;
60292;SDS011;52402;52.670;6.750;2023-09-08T06:17:53;0.30;;;0.30;;
60292;SDS011;52402;52.670;6.750;2023-09-08T06:20:19;0.20;;;0.20;;
60292;SDS011;52402;52.670;6.750;2023-09-08T06:22:45;0.30;;;0.30;;
60292;SDS011;52402;52.670;6.750;2023-09-08T06:25:10;0.20;;;0.20;;
60292;SDS011;52402;52.670;6.750;2023-09-08T06:27:36;0.20;;;0.20;;
60292;SDS011;52402;52.670;6.750;2023-09-08T06:30:02;0.20;;;0.20;;
60292;SDS011;52402;52.670;6.750;2023-09-08T06:32:27;0.20;;;0.20;;
60292;SDS011;52402;52.670;6.750;2023-09-08T06:34:53;0.22;;;0.22;;
60292;SDS011;52402;52.670;6.750;2023-09-08T06:37:19;0.20;;;0.20;;
60292;SDS011;52402;52.670;6.750;2023-09-08T06:39:44;0.20;;;0.20;;
60292;SDS011;52402;52.670;6.750;2023-09-08T06:42:10;0.20;;;0.20;;
60292;SDS011;52402;52.670;6.750;2023-09-08T06:44:36;0.20;;;0.20;;
60292;SDS011;52402;52.670;6.750;2023-09-08T06:47:01;0.30;;;0.30;;
60292;SDS011;52402;52.670;6.750;2023-09-08T06:49:28;0.20;;;0.20;;
60292;SDS011;52402;52.670;6.750;2023-09-08T06:51:54;0.20;;;0.20;;
60292;SDS011;52402;52.670;6.750;2023-09-08T06:54:19;0.30;;;0.30;;
60292;SDS011;52402;52.670;6.750;2023-09-08T06:56:45;0.20;;;0.20;;
60292;SDS011;52402;52.670;6.750;2023-09-08T06:59:10;0.20;;;0.20;;
60292;SDS011;52402;52.670;6.750;2023-09-08T07:01:36;0.20;;;0.20;;
60292;SDS011;52402;52.670;6.750;2023-09-08T07:04:02;0.20;;;0.20;;
60292;SDS011;52402;52.670;6.750;2023-09-08T07:06:28;0.20;;;0.20;;
60292;SDS011;52402;52.670;6.750;2023-09-08T07:08:53;0.20;;;0.20;;
60292;SDS011;52402;52.670;6.750;2023-09-08T07:11:19;0.20;;;0.20;;
60292;SDS011;52402;52.670;6.750;2023-09-08T07:13:45;0.25;;;0.25;;
60292;SDS011;52402;52.670;6.750;2023-09-08T07:16:10;0.20;;;0.20;;
60292;SDS011;52402;52.670;6.750;2023-09-08T07:18:36;0.20;;;0.20;;
60292;SDS011;52402;52.670;6.750;2023-09-08T07:21:03;0.20;;;0.20;;
60292;SDS011;52402;52.670;6.750;2023-09-08T07:23:29;0.20;;;0.20;;
60292;SDS011;52402;52.670;6.750;2023-09-08T07:25:54;0.20;;;0.20;;
60292;SDS011;52402;52.670;6.750;2023-09-08T07:28:20;0.25;;;0.25;;
60292;SDS011;52402;52.670;6.750;2023-09-08T07:30:46;0.20;;;0.20;;
60292;SDS011;52402;52.670;6.750;2023-09-08T07:33:11;0.20;;;0.20;;
60292;SDS011;52402;52.670;6.750;2023-09-08T07:35:38;0.20;;;0.20;;
60292;SDS011;52402;52.670;6.750;2023-09-08T07:38:04;0.20;;;0.20;;
60292;SDS011;52402;52.670;6.750;2023-09-08T07:40:31;0.20;;;0.20;;
60292;SDS011;52402;52.670;6.750;2023-09-08T07:42:58;0.20;;;0.20;;
60292;SDS011;52402;52.670;6.750;2023-09-08T07:45:23;0.20;;;0.20;;
60292;SDS011;52402;52.670;6.750;2023-09-08T07:47:49;0.20;;;0.20;;
60292;SDS011;52402;52.670;6.750;2023-09-08T07:50:19;0.20;;;0.20;;
60292;SDS011;52402;52.670;6.750;2023-09-08T07:52:47;0.20;;;0.20;;
60292;SDS011;52402;52.670;6.750;2023-09-08T07:55:14;0.20;;;0.20;;
60292;SDS011;52402;52.670;6.750;2023-09-08T07:57:41;0.25;;;0.25;;
60292;SDS011;52402;52.670;6.750;2023-09-08T08:00:08;0.20;;;0.20;;
60292;SDS011;52402;52.670;6.750;2023-09-08T08:02:37;0.30;;;0.30;;
60292;SDS011;52402;52.670;6.750;2023-09-08T08:05:06;0.20;;;0.20;;
60292;SDS011;52402;52.670;6.750;2023-09-08T08:07:32;0.20;;;0.20;;
60292;SDS011;52402;52.670;6.750;2023-09-08T08:09:58;0.20;;;0.20;;
60292;SDS011;52402;52.670;6.750;2023-09-08T08:12:24;0.20;;;0.20;;
60292;SDS011;52402;52.670;6.750;2023-09-08T08:14:49;0.20;;;0.20;;
60292;SDS011;52402;52.670;6.750;2023-09-08T08:17:15;0.30;;;0.30;;
60292;SDS011;52402;52.670;6.750;2023-09-08T08:19:42;0.20;;;0.20;;
60292;SDS011;52402;52.670;6.750;2023-09-08T08:22:08;0.30;;;0.30;;
60292;SDS011;52402;52.670;6.750;2023-09-08T08:24:34;0.20;;;0.20;;
60292;SDS011;52402;52.670;6.750;2023-09-08T08:26:59;0.20;;;0.20;;
60292;SDS011;52402;52.670;6.750;2023-09-08T08:29:26;0.30;;;0.30;;
60292;SDS011;52402;52.670;6.750;2023-09-08T08:31:52;0.20;;;0.20;;
60292;SDS011;52402;52.670;6.750;2023-09-08T08:34:18;0.30;;;0.30;;
60292;SDS011;52402;52.670;6.750;2023-09-08T08:36:43;0.20;;;0.20;;
60292;SDS011;52402;52.670;6.750;2023-09-08T08:39:09;0.20;;;0.20;;
60292;SDS011;52402;52.670;6.750;2023-09-08T08:41:34;0.22;;;0.22;;
60292;SDS011;52402;52.670;6.750;2023-09-08T08:44:05;0.30;;;0.30;;
60292;SDS011;52402;52.670;6.750;2023-09-08T08:46:31;0.20;;;0.20;;
60292;SDS011;52402;52.670;6.750;2023-09-08T08:49:01;0.30;;;0.30;;
60292;SDS011;52402;52.670;6.750;2023-09-08T08:51:28;0.25;;;0.25;;
60292;SDS011;52402;52.670;6.750;2023-09-08T08:53:56;0.20;;;0.20;;
60292;SDS011;52402;52.670;6.750;2023-09-08T08:56:22;0.30;;;0.30;;
60292;SDS011;52402;52.670;6.750;2023-09-08T08:58:48;0.20;;;0.20;;
60292;SDS011;52402;52.670;6.750;2023-09-08T09:01:18;0.20;;;0.20;;
60292;SDS011;52402;52.670;6.750;2023-09-08T09:03:46;0.20;;;0.20;;
60292;SDS011;52402;52.670;6.750;2023-09-08T09:06:15;0.30;;;0.30;;
60292;SDS011;52402;52.670;6.750;2023-09-08T09:08:42;0.22;;;0.22;;
60292;SDS011;52402;52.670;6.750;2023-09-08T09:11:09;0.30;;;0.30;;
60292;SDS011;52402;52.670;6.750;2023-09-08T09:13:35;0.20;;;0.20;;
60292;SDS011;52402;52.670;6.750;2023-09-08T09:16:01;0.30;;;0.30;;
60292;SDS011;52402;52.670;6.750;2023-09-08T09:18:29;0.30;;;0.30;;
60292;SDS011;52402;52.670;6.750;2023-09-08T09:20:58;0.30;;;0.30;;
60292;SDS011;52402;52.670;6.750;2023-09-08T09:23:28;0.30;;;0.30;;
60292;SDS011;52402;52.670;6.750;2023-09-08T09:25:59;0.35;;;0.35;;
60292;SDS011;52402;52.670;6.750;2023-09-08T09:28:28;0.30;;;0.30;;
60292;SDS011;52402;52.670;6.750;2023-09-08T09:30:54;0.30;;;0.30;;
60292;SDS011;52402;52.670;6.750;2023-09-08T09:33:20;0.30;;;0.30;;
60292;SDS011;52402;52.670;6.750;2023-09-08T09:38:17;0.30;;;0.30;;
60292;SDS011;52402;52.670;6.750;2023-09-08T09:40:46;0.30;;;0.30;;
60292;SDS011;52402;52.670;6.750;2023-09-08T09:43:13;0.30;;;0.30;;
60292;SDS011;52402;52.670;6.750;2023-09-08T09:45:41;0.30;;;0.30;;
60292;SDS011;52402;52.670;6.750;2023-09-08T09:48:08;0.30;;;0.30;;
60292;SDS011;52402;52.670;6.750;2023-09-08T09:50:35;0.30;;;0.30;;
60292;SDS011;52402;52.670;6.750;2023-09-08T09:53:11;0.38;;;0.38;;
60292;SDS011;52402;52.670;6.750;2023-09-08T09:55:38;0.30;;;0.30;;
60292;SDS011;52402;52.670;6.750;2023-09-08T09:58:06;0.30;;;0.30;;
60292;SDS011;52402;52.670;6.750;2023-09-08T10:00:33;0.40;;;0.40;;
60292;SDS011;52402;52.670;6.750;2023-09-08T10:03:00;0.30;;;0.30;;
60292;SDS011;52402;52.670;6.750;2023-09-08T10:05:26;0.30;;;0.30;;
60292;SDS011;52402;52.670;6.750;2023-09-08T10:07:52;0.40;;;0.40;;
60292;SDS011;52402;52.670;6.750;2023-09-08T10:10:18;0.30;;;0.30;;
60292;SDS011;52402;52.670;6.750;2023-09-08T10:12:46;0.30;;;0.30;;
60292;SDS011;52402;52.670;6.750;2023-09-08T10:15:18;0.30;;;0.30;;
60292;SDS011;52402;52.670;6.750;2023-09-08T10:17:55;0.32;;;0.32;;
60292;SDS011;52402;52.670;6.750;2023-09-08T10:20:26;0.30;;;0.30;;
60292;SDS011;52402;52.670;6.750;2023-09-08T10:23:12;0.28;;;0.28;;
60292;SDS011;52402;52.670;6.750;2023-09-08T10:25:47;0.30;;;0.30;;
60292;SDS011;52402;52.670;6.750;2023-09-08T10:28:19;0.38;;;0.38;;
60292;SDS011;52402;52.670;6.750;2023-09-08T10:30:47;0.40;;;0.40;;
60292;SDS011;52402;52.670;6.750;2023-09-08T10:33:13;0.40;;;0.40;;
60292;SDS011;52402;52.670;6.750;2023-09-08T10:35:42;0.40;;;0.40;;
60292;SDS011;52402;52.670;6.750;2023-09-08T10:43:41;0.40;;;0.40;;
60292;SDS011;52402;52.670;6.750;2023-09-08T10:46:23;0.40;;;0.40;;
60292;SDS011;52402;52.670;6.750;2023-09-08T10:48:53;0.40;;;0.40;;
60292;SDS011;52402;52.670;6.750;2023-09-08T10:51:19;0.40;;;0.40;;
60292;SDS011;52402;52.670;6.750;2023-09-08T10:53:48;0.40;;;0.40;;
60292;SDS011;52402;52.670;6.750;2023-09-08T10:58:43;0.40;;;0.40;;
60292;SDS011;52402;52.670;6.750;2023-09-08T11:01:19;0.40;;;0.40;;
60292;SDS011;52402;52.670;6.750;2023-09-08T11:03:51;0.40;;;0.40;;
60292;SDS011;52402;52.670;6.750;2023-09-08T11:06:19;0.40;;;0.40;;
60292;SDS011;52402;52.670;6.750;2023-09-08T11:08:47;0.40;;;0.40;;
60292;SDS011;52402;52.670;6.750;2023-09-08T11:11:15;0.40;;;0.40;;
60292;SDS011;52402;52.670;6.750;2023-09-08T11:13:41;0.50;;;0.50;;
60292;SDS011;52402;52.670;6.750;2023-09-08T11:16:10;0.40;;;0.40;;
60292;SDS011;52402;52.670;6.750;2023-09-08T11:18:36;0.40;;;0.40;;
60292;SDS011;52402;52.670;6.750;2023-09-08T11:21:02;0.47;;;0.47;;
60292;SDS011;52402;52.670;6.750;2023-09-08T11:23:32;0.50;;;0.50;;
60292;SDS011;52402;52.670;6.750;2023-09-08T11:25:58;0.50;;;0.50;;
60292;SDS011;52402;52.670;6.750;2023-09-08T11:28:25;0.50;;;0.50;;
60292;SDS011;52402;52.670;6.750;2023-09-08T11:30:52;0.50;;;0.50;;
60292;SDS011;52402;52.670;6.750;2023-09-08T11:33:20;0.50;;;0.50;;
60292;SDS011;52402;52.670;6.750;2023-09-08T11:35:50;0.40;;;0.40;;
60292;SDS011;52402;52.670;6.750;2023-09-08T11:38:18;0.50;;;0.50;;
60292;SDS011;52402;52.670;6.750;2023-09-08T11:40:45;0.43;;;0.43;;
60292;SDS011;52402;52.670;6.750;2023-09-08T11:43:11;0.43;;;0.43;;
60292;SDS011;52402;52.670;6.750;2023-09-08T11:45:37;0.40;;;0.40;;
60292;SDS011;52402;52.670;6.750;2023-09-08T11:48:03;0.50;;;0.50;;
60292;SDS011;52402;52.670;6.750;2023-09-08T11:50:30;0.50;;;0.50;;
60292;SDS011;52402;52.670;6.750;2023-09-08T11:52:56;0.50;;;0.50;;
60292;SDS011;52402;52.670;6.750;2023-09-08T11:55:24;0.50;;;0.50;;
60292;SDS011;52402;52.670;6.750;2023-09-08T11:57:52;0.50;;;0.50;;
60292;SDS011;52402;52.670;6.750;2023-09-08T12:00:26;0.50;;;0.50;;
60292;SDS011;52402;52.670;6.750;2023-09-08T12:02:52;0.50;;;0.50;;
60292;SDS011;52402;52.670;6.750;2023-09-08T12:05:22;0.50;;;0.50;;
60292;SDS011;52402;52.670;6.750;2023-09-08T12:07:51;0.50;;;0.50;;
60292;SDS011;52402;52.670;6.750;2023-09-08T12:10:20;0.50;;;0.50;;
60292;SDS011;52402;52.670;6.750;2023-09-08T12:12:55;0.60;;;0.60;;
60292;SDS011;52402;52.670;6.750;2023-09-08T12:18:01;0.60;;;0.60;;
60292;SDS011;52402;52.670;6.750;2023-09-08T12:20:28;0.60;;;0.60;;
60292;SDS011;52402;52.670;6.750;2023-09-08T12:22:56;0.70;;;0.70;;
60292;SDS011;52402;52.670;6.750;2023-09-08T12:25:25;0.70;;;0.70;;
60292;SDS011;52402;52.670;6.750;2023-09-08T12:27:53;0.60;;;0.60;;
60292;SDS011;52402;52.670;6.750;2023-09-08T12:30:19;0.70;;;0.70;;
60292;SDS011;52402;52.670;6.750;2023-09-08T12:32:46;0.70;;;0.70;;
60292;SDS011;52402;52.670;6.750;2023-09-08T12:35:19;0.90;;;0.90;;
60292;SDS011;52402;52.670;6.750;2023-09-08T12:37:46;0.60;;;0.60;;
60292;SDS011;52402;52.670;6.750;2023-09-08T12:40:13;0.70;;;0.70;;
60292;SDS011;52402;52.670;6.750;2023-09-08T12:42:40;0.90;;;0.90;;
60292;SDS011;52402;52.670;6.750;2023-09-08T12:45:06;0.88;;;0.88;;
60292;SDS011;52402;52.670;6.750;2023-09-08T12:47:32;0.98;;;0.98;;
60292;SDS011;52402;52.670;6.750;2023-09-08T12:49:57;0.90;;;0.90;;
60292;SDS011;52402;52.670;6.750;2023-09-08T12:52:23;1.00;;;1.00;;
60292;SDS011;52402;52.670;6.750;2023-09-08T12:54:49;0.80;;;0.80;;
60292;SDS011;52402;52.670;6.750;2023-09-08T12:57:14;0.90;;;0.90;;
60292;SDS011;52402;52.670;6.750;2023-09-08T12:59:40;1.00;;;1.00;;
60292;SDS011;52402;52.670;6.750;2023-09-08T13:02:05;0.85;;;0.85;;
60292;SDS011;52402;52.670;6.750;2023-09-08T13:04:32;1.00;;;1.00;;
60292;SDS011;52402;52.670;6.750;2023-09-08T13:06:57;1.05;;;1.05;;
60292;SDS011;52402;52.670;6.750;2023-09-08T13:09:25;1.10;;;1.10;;
60292;SDS011;52402;52.670;6.750;2023-09-08T13:11:51;1.10;;;1.10;;
60292;SDS011;52402;52.670;6.750;2023-09-08T13:14:17;1.10;;;1.10;;
60292;SDS011;52402;52.670;6.750;2023-09-08T13:16:42;1.38;;;1.27;;
60292;SDS011;52402;52.670;6.750;2023-09-08T13:19:08;1.00;;;1.00;;
60292;SDS011;52402;52.670;6.750;2023-09-08T13:21:33;1.10;;;1.10;;
60292;SDS011;52402;52.670;6.750;2023-09-08T13:23:59;1.15;;;1.15;;
60292;SDS011;52402;52.670;6.750;2023-09-08T13:26:25;1.13;;;1.13;;
60292;SDS011;52402;52.670;6.750;2023-09-08T13:28:51;1.60;;;1.50;;
60292;SDS011;52402;52.670;6.750;2023-09-08T13:31:17;1.10;;;1.10;;
60292;SDS011;52402;52.670;6.750;2023-09-08T13:33:43;1.40;;;1.30;;
60292;SDS011;52402;52.670;6.750;2023-09-08T13:36:08;1.10;;;1.10;;
60292;SDS011;52402;52.670;6.750;2023-09-08T13:38:34;1.58;;;1.48;;
60292;SDS011;52402;52.670;6.750;2023-09-08T13:41:02;1.50;;;1.40;;
60292;SDS011;52402;52.670;6.750;2023-09-08T13:43:28;1.20;;;1.20;;
60292;SDS011;52402;52.670;6.750;2023-09-08T13:45:53;1.25;;;1.20;;
60292;SDS011;52402;52.670;6.750;2023-09-08T13:48:19;1.33;;;1.23;;
60292;SDS011;52402;52.670;6.750;2023-09-08T13:50:45;1.38;;;1.27;;
60292;SDS011;52402;52.670;6.750;2023-09-08T13:53:10;1.23;;;1.20;;
60292;SDS011;52402;52.670;6.750;2023-09-08T13:55:36;1.40;;;1.30;;
60292;SDS011;52402;52.670;6.750;2023-09-08T13:58:02;1.20;;;1.20;;
60292;SDS011;52402;52.670;6.750;2023-09-08T14:00:27;1.40;;;1.30;;
60292;SDS011;52402;52.670;6.750;2023-09-08T14:02:53;1.38;;;1.27;;
60292;SDS011;52402;52.670;6.750;2023-09-08T14:05:18;1.25;;;1.23;;
60292;SDS011;52402;52.670;6.750;2023-09-08T14:07:44;1.50;;;1.40;;
60292;SDS011;52402;52.670;6.750;2023-09-08T14:10:10;1.20;;;1.20;;
60292;SDS011;52402;52.670;6.750;2023-09-08T14:12:35;1.10;;;1.10;;
60292;SDS011;52402;52.670;6.750;2023-09-08T14:15:01;1.38;;;1.27;;
60292;SDS011;52402;52.670;6.750;2023-09-08T14:17:28;1.40;;;1.30;;
60292;SDS011;52402;52.670;6.750;2023-09-08T14:19:53;1.33;;;1.23;;
60292;SDS011;52402;52.670;6.750;2023-09-08T14:22:19;1.40;;;1.30;;
60292;SDS011;52402;52.670;6.750;2023-09-08T14:24:44;1.10;;;1.10;;
60292;SDS011;52402;52.670;6.750;2023-09-08T14:27:10;1.10;;;1.10;;
60292;SDS011;52402;52.670;6.750;2023-09-08T14:29:35;1.27;;;1.20;;
60292;SDS011;52402;52.670;6.750;2023-09-08T14:36:56;1.13;;;1.13;;
60292;SDS011;52402;52.670;6.750;2023-09-08T14:39:21;1.20;;;1.20;;
60292;SDS011;52402;52.670;6.750;2023-09-08T14:41:48;1.13;;;1.13;;
60292;SDS011;52402;52.670;6.750;2023-09-08T14:44:15;1.10;;;1.10;;
60292;SDS011;52402;52.670;6.750;2023-09-08T14:46:41;1.00;;;1.00;;
60292;SDS011;52402;52.670;6.750;2023-09-08T14:49:06;1.10;;;1.10;;
60292;SDS011;52402;52.670;6.750;2023-09-08T14:51:32;1.23;;;1.20;;
60292;SDS011;52402;52.670;6.750;2023-09-08T14:53:58;1.40;;;1.30;;
60292;SDS011;52402;52.670;6.750;2023-09-08T14:56:23;1.10;;;1.10;;
60292;SDS011;52402;52.670;6.750;2023-09-08T14:58:50;1.17;;;1.17;;
60292;SDS011;52402;52.670;6.750;2023-09-08T15:01:16;1.05;;;1.05;;
60292;SDS011;52402;52.670;6.750;2023-09-08T15:03:41;1.20;;;1.20;;
60292;SDS011;52402;52.670;6.750;2023-09-08T15:06:07;1.35;;;1.25;;